Time;durP1;ratioP1;P1;durP2;ratioP2;P2;SDS_P1;SDS_P2;PMS_P1;PMS_P2;Temp;Humidity;BMP_temperature;BMP_pressure;BME280_temperature;BME280_humidity;BME280_pressure;Samples;Min_cycle;Max_cycle;Signal;HPM_P1;HPM_P2
2022/09/28 00:00:55;;;;;;;;;1.33;1.00;;;;;13.44;81.12;99325.75;5092036;27;45582;-53
2022/09/28 00:03:21;;;;;;;;;2.67;1.67;;;;;13.39;81.49;99326.13;5081787;27;45381;-55
2022/09/28 00:05:46;;;;;;;;;1.00;1.00;;;;;13.47;81.57;99334.31;5112540;27;45483;-52
2022/09/28 00:08:12;;;;;;;;;1.00;1.00;;;;;13.44;81.37;99323.06;5111398;27;48104;-55
2022/09/28 00:10:38;;;;;;;;;0.00;0.00;;;;;13.42;80.46;99317.88;5094489;27;45298;-55
2022/09/28 00:13:05;;;;;;;;;1.00;1.00;;;;;13.44;80.35;99331.94;5078995;27;45479;-51
2022/09/28 00:15:31;;;;;;;;;1.00;0.33;;;;;13.38;80.54;99324.44;5081650;27;45392;-55
2022/09/28 00:17:56;;;;;;;;;0.67;0.67;;;;;13.43;80.60;99327.56;5091869;27;45783;-55
2022/09/28 00:20:21;;;;;;;;;1.00;1.00;;;;;13.39;80.14;99322.59;5077032;27;45432;-57
2022/09/28 00:22:47;;;;;;;;;1.67;1.67;;;;;13.37;79.79;99327.25;5075256;27;45260;-54
2022/09/28 00:25:12;;;;;;;;;1.00;1.00;;;;;13.36;79.61;99321.06;5075764;27;45264;-54
2022/09/28 00:27:39;;;;;;;;;2.00;1.00;;;;;13.37;80.17;99320.06;5075743;28;46105;-57
2022/09/28 00:30:05;;;;;;;;;0.33;0.33;;;;;13.39;80.42;99325.28;5074584;27;45457;-55
2022/09/28 00:32:30;;;;;;;;;1.00;1.00;;;;;13.38;79.82;99329.78;5075919;27;45225;-56
2022/09/28 00:34:55;;;;;;;;;5.33;1.00;;;;;13.35;79.42;99327.38;5076153;27;45420;-55
2022/09/28 00:37:21;;;;;;;;;4.00;0.67;;;;;13.34;79.24;99323.03;5076027;27;46360;-58
2022/09/28 00:39:47;;;;;;;;;3.00;1.00;;;;;13.33;78.68;99326.69;5091242;27;45251;-56
2022/09/28 00:42:16;;;;;;;;;2.67;1.33;;;;;13.31;78.87;99322.44;5076261;27;45258;-55
2022/09/28 00:44:51;;;;;;;;;2.00;1.00;;;;;13.28;78.38;99327.09;5076051;27;45576;-55
2022/09/28 00:47:36;;;;;;;;;1.00;1.00;;;;;13.28;78.88;99318.19;5080246;27;46176;-55
2022/09/28 00:50:25;;;;;;;;;2.00;0.00;;;;;13.30;78.38;99321.63;5075622;27;45539;-55
2022/09/28 00:53:15;;;;;;;;;2.00;1.00;;;;;13.33;78.20;99323.16;5084212;27;45387;-57
2022/09/28 00:55:54;;;;;;;;;0.00;0.00;;;;;13.28;78.69;99312.88;5089091;27;45776;-56
2022/09/28 00:58:26;;;;;;;;;2.00;1.00;;;;;13.16;78.63;99295.25;5065070;27;45497;-55
2022/09/28 01:00:54;;;;;;;;;2.00;1.00;;;;;13.21;78.71;99311.72;5076360;27;45542;-55
2022/09/28 01:03:20;;;;;;;;;3.00;1.00;;;;;13.27;78.62;99324.53;5110173;27;45236;-55
2022/09/28 01:05:47;;;;;;;;;1.00;1.00;;;;;13.24;78.88;99317.63;5091451;27;45619;-56
2022/09/28 01:08:14;;;;;;;;;0.67;0.67;;;;;13.22;79.21;99319.59;5082478;27;46547;-55
2022/09/28 01:10:42;;;;;;;;;1.67;1.67;;;;;13.18;78.80;99312.84;5088252;27;45446;-53
2022/09/28 01:13:08;;;;;;;;;4.00;1.00;;;;;13.20;79.38;99310.03;5097097;27;45720;-54
2022/09/28 01:15:42;;;;;;;;;2.00;2.00;;;;;13.15;78.91;99313.09;5094749;27;45295;-54
2022/09/28 01:18:21;;;;;;;;;1.00;1.00;;;;;13.16;79.03;99313.94;5087305;27;46548;-54
2022/09/28 01:21:19;;;;;;;;;3.33;1.67;;;;;13.11;79.87;99310.78;5090229;27;45539;-55
2022/09/28 01:23:57;;;;;;;;;2.00;2.00;;;;;13.13;79.48;99314.16;5094286;27;45342;-56
2022/09/28 01:26:47;;;;;;;;;3.33;0.67;;;;;13.10;79.90;99303.78;5078669;27;45476;-53
2022/09/28 01:29:15;;;;;;;;;1.33;1.33;;;;;13.10;80.32;99312.63;5097021;27;45397;-53
2022/09/28 01:31:47;;;;;;;;;3.00;1.00;;;;;13.08;80.21;99309.25;5077888;27;46208;-57
2022/09/28 01:34:19;;;;;;;;;3.67;2.00;;;;;13.09;80.35;99300.25;5093770;27;45250;-56
2022/09/28 01:36:53;;;;;;;;;3.00;1.00;;;;;13.04;80.82;99296.31;5098583;27;45462;-55
2022/09/28 01:39:25;;;;;;;;;2.00;1.00;;;;;13.04;81.00;99301.66;5099754;27;45311;-56
2022/09/28 01:41:53;;;;;;;;;2.67;1.67;;;;;12.99;80.71;99297.53;5082831;27;45814;-59
2022/09/28 01:44:21;;;;;;;;;2.67;2.00;;;;;13.04;80.85;99302.50;5092479;27;45508;-57
2022/09/28 01:46:49;;;;;;;;;2.33;1.00;;;;;13.02;81.03;99299.13;5093518;27;45586;-56
2022/09/28 01:49:14;;;;;;;;;1.00;1.00;;;;;13.05;81.22;99300.66;5078222;27;45487;-53
2022/09/28 01:51:48;;;;;;;;;4.00;2.67;;;;;13.04;80.63;99291.81;5095003;27;45421;-55
2022/09/28 01:54:20;;;;;;;;;1.67;1.67;;;;;13.05;81.13;99292.66;5094431;27;45613;-53
2022/09/28 01:56:55;;;;;;;;;2.67;1.67;;;;;13.02;81.13;99291.09;5063086;27;45252;-54
2022/09/28 01:59:29;;;;;;;;;1.00;1.00;;;;;13.03;80.99;99287.47;5078268;27;46676;-55
2022/09/28 02:02:05;;;;;;;;;3.67;1.00;;;;;12.99;81.08;99286.00;5080335;27;45257;-57
2022/09/28 02:04:48;;;;;;;;;5.00;3.00;;;;;12.98;81.87;99289.66;5090699;27;45579;-58
2022/09/28 02:07:32;;;;;;;;;2.67;1.00;;;;;12.98;81.39;99285.16;5071314;27;45264;-56
2022/09/28 02:10:02;;;;;;;;;4.00;2.00;;;;;13.05;81.63;99279.31;5094495;27;46346;-58
2022/09/28 02:12:42;;;;;;;;;4.00;2.67;;;;;13.03;81.10;99282.13;5094903;27;45376;-62
2022/09/28 02:15:19;;;;;;;;;2.33;2.33;;;;;13.00;81.45;99293.88;5096635;27;45553;-57
2022/09/28 02:17:45;;;;;;;;;1.00;1.00;;;;;12.91;81.05;99272.50;5087408;27;45579;-56
2022/09/28 02:20:11;;;;;;;;;2.67;1.33;;;;;12.99;81.63;99286.84;5087706;27;45329;-56
2022/09/28 02:22:45;;;;;;;;;2.33;1.00;;;;;13.00;81.59;99277.88;5094919;27;45349;-57
2022/09/28 02:25:23;;;;;;;;;2.67;1.00;;;;;12.98;81.36;99269.16;5088623;27;45570;-55
2022/09/28 02:28:02;;;;;;;;;3.00;1.33;;;;;12.99;81.18;99278.00;5089773;27;45488;-54
2022/09/28 02:30:29;;;;;;;;;1.67;1.67;;;;;12.94;81.39;99262.41;5057242;28;45835;-55
2022/09/28 02:33:02;;;;;;;;;3.00;1.67;;;;;12.92;80.68;99264.38;5088017;27;45339;-57
2022/09/28 02:35:27;;;;;;;;;6.33;2.00;;;;;12.95;81.07;99274.75;5080483;27;45309;-56
2022/09/28 02:37:54;;;;;;;;;2.67;1.00;;;;;12.91;80.79;99262.69;5093278;27;45583;-56
2022/09/28 02:40:23;;;;;;;;;1.00;1.00;;;;;12.98;81.13;99273.66;5092993;27;45556;-57
2022/09/28 02:43:00;;;;;;;;;3.00;3.00;;;;;12.93;80.99;99268.72;5088378;27;45508;-57
2022/09/28 02:45:58;;;;;;;;;2.67;1.67;;;;;12.95;81.24;99274.75;5095569;27;45443;-54
2022/09/28 02:48:46;;;;;;;;;4.00;2.00;;;;;12.95;80.76;99274.75;5052764;27;45533;-58
2022/09/28 02:51:29;;;;;;;;;2.00;2.00;;;;;12.92;80.66;99269.69;5105222;27;46230;-55
2022/09/28 02:53:57;;;;;;;;;1.00;1.00;;;;;12.92;80.71;99272.38;5094923;27;45248;-55
2022/09/28 02:56:49;;;;;;;;;2.00;2.00;;;;;12.91;81.00;99275.19;5093063;27;45425;-55
2022/09/28 02:59:39;;;;;;;;;1.00;1.00;;;;;12.90;80.49;99282.34;5076041;27;45582;-55
2022/09/28 03:02:23;;;;;;;;;1.00;1.00;;;;;12.86;81.17;99267.56;5076108;27;47108;-57
2022/09/28 03:05:18;;;;;;;;;5.00;1.67;;;;;12.87;80.85;99276.41;5075611;27;45350;-56
2022/09/28 03:07:52;;;;;;;;;1.33;1.33;;;;;12.85;80.77;99279.19;5090795;27;45587;-56
2022/09/28 03:10:37;;;;;;;;;3.00;2.00;;;;;12.82;80.71;99275.97;5079447;27;45423;-56
2022/09/28 03:13:04;;;;;;;;;1.00;1.00;;;;;12.80;80.47;99280.59;5095962;27;46844;-56
2022/09/28 03:15:32;;;;;;;;;1.67;1.00;;;;;12.80;80.22;99286.78;5094893;27;45623;-58
2022/09/28 03:17:58;;;;;;;;;2.00;2.00;;;;;12.83;80.75;99283.81;5096392;27;45392;-55
2022/09/28 03:20:28;;;;;;;;;2.00;1.00;;;;;12.84;80.62;99282.00;5094941;27;45600;-54
2022/09/28 03:22:54;;;;;;;;;1.33;1.33;;;;;12.81;80.24;99279.59;5089251;27;45337;-56
2022/09/28 03:25:19;;;;;;;;;3.00;3.00;;;;;12.82;80.31;99282.16;5103316;27;46087;-56
2022/09/28 03:27:45;;;;;;;;;2.00;2.00;;;;;12.79;80.61;99290.41;5088797;27;45413;-56
2022/09/28 03:30:11;;;;;;;;;1.00;1.00;;;;;12.82;79.93;99281.28;5093884;27;45481;-53
2022/09/28 03:32:37;;;;;;;;;5.33;1.00;;;;;12.80;80.22;99281.44;5081427;27;46447;-56
2022/09/28 03:35:03;;;;;;;;;3.00;2.00;;;;;12.79;80.18;99292.25;5095977;27;46795;-57
2022/09/28 03:37:29;;;;;;;;;3.00;1.00;;;;;12.72;80.31;99283.06;5095929;27;45519;-56
2022/09/28 03:39:55;;;;;;;;;2.00;2.00;;;;;12.79;80.20;99292.25;5078378;27;45156;-54
2022/09/28 03:42:20;;;;;;;;;7.00;3.00;;;;;12.77;80.35;99287.03;5097779;27;45344;-55
2022/09/28 03:44:45;;;;;;;;;2.00;2.00;;;;;12.78;81.12;99294.06;5074347;27;45291;-55
2022/09/28 03:47:11;;;;;;;;;2.67;2.00;;;;;12.79;80.33;99297.56;5078145;27;45539;-56
2022/09/28 03:49:36;;;;;;;;;1.67;1.67;;;;;12.72;81.16;99294.56;5097633;27;45551;-57
2022/09/28 03:52:03;;;;;;;;;1.00;1.00;;;;;12.75;80.82;99304.97;5085881;27;45172;-55
2022/09/28 03:54:28;;;;;;;;;2.00;2.00;;;;;12.68;80.87;99299.34;5083988;27;45250;-54
2022/09/28 03:56:54;;;;;;;;;3.67;2.67;;;;;12.73;81.33;99301.59;5080842;27;45616;-56
2022/09/28 03:59:19;;;;;;;;;1.00;1.00;;;;;12.77;80.94;99297.72;5080471;27;45473;-55
2022/09/28 04:01:48;;;;;;;;;2.00;2.00;;;;;12.68;81.10;99288.66;5087920;27;45540;-55
2022/09/28 04:04:13;;;;;;;;;1.67;1.00;;;;;12.74;81.17;99300.63;5091701;27;45346;-53
2022/09/28 04:06:39;;;;;;;;;2.00;2.00;;;;;12.73;81.28;99301.59;5085560;27;45641;-56
2022/09/28 04:09:04;;;;;;;;;3.67;2.00;;;;;12.73;81.15;99304.25;5093569;27;45622;-55
2022/09/28 04:11:30;;;;;;;;;1.67;1.00;;;;;12.70;81.12;99301.88;5089617;27;46989;-57
2022/09/28 04:13:56;;;;;;;;;3.00;3.00;;;;;12.69;81.45;99308.19;5111908;27;45459;-54
2022/09/28 04:16:21;;;;;;;;;3.00;1.67;;;;;12.63;81.58;99306.00;5064726;27;45361;-55
2022/09/28 04:18:47;;;;;;;;;2.00;2.00;;;;;12.64;81.35;99310.41;5089894;27;45212;-62
2022/09/28 04:21:15;;;;;;;;;1.00;1.00;;;;;12.66;81.67;99311.97;5089099;27;46051;-56
2022/09/28 04:23:41;;;;;;;;;4.00;2.00;;;;;12.69;80.97;99309.03;5095546;27;45443;-55
2022/09/28 04:26:15;;;;;;;;;3.00;3.00;;;;;12.64;81.27;99303.25;5111437;27;45371;-57
2022/09/28 04:31:24;;;;;;;;;2.33;2.00;;;;;12.70;81.08;99307.19;5075009;27;45357;-61
2022/09/28 04:33:50;;;;;;;;;3.00;3.00;;;;;12.75;81.12;99310.31;5101668;27;45828;-56
2022/09/28 04:36:16;;;;;;;;;3.67;3.00;;;;;12.76;80.60;99314.69;5110972;27;45693;-57
2022/09/28 04:38:42;;;;;;;;;3.00;3.00;;;;;12.72;81.19;99315.06;5085090;27;45580;-56
2022/09/28 04:41:07;;;;;;;;;3.00;2.00;;;;;12.80;80.84;99325.94;5079788;27;46173;-57
2022/09/28 04:43:33;;;;;;;;;3.33;2.00;;;;;12.81;80.97;99328.47;5089815;27;45412;-59
2022/09/28 04:46:04;;;;;;;;;3.00;3.00;;;;;12.84;80.86;99330.88;5099115;27;45416;-56
2022/09/28 04:48:30;;;;;;;;;4.00;3.00;;;;;12.78;80.52;99325.22;5095559;27;46117;-58
2022/09/28 04:50:57;;;;;;;;;2.00;2.00;;;;;12.85;80.07;99337.06;5104692;27;47157;-55
2022/09/28 04:53:24;;;;;;;;;4.00;2.67;;;;;12.83;80.36;99337.19;5085126;27;45425;-57
2022/09/28 04:56:01;;;;;;;;;4.33;4.33;;;;;12.78;80.08;99328.75;5089532;27;45408;-57
2022/09/28 04:58:27;;;;;;;;;5.67;4.00;;;;;12.81;80.31;99338.31;5079655;27;45620;-58
2022/09/28 05:00:57;;;;;;;;;3.00;3.00;;;;;12.80;80.34;99337.47;5083019;27;46217;-56
2022/09/28 05:03:23;;;;;;;;;2.00;2.00;;;;;12.79;80.47;99333.09;5086193;27;45512;-57
2022/09/28 05:05:48;;;;;;;;;2.67;2.67;;;;;12.81;80.79;99323.13;5090335;27;45671;-54
2022/09/28 05:08:15;;;;;;;;;3.00;3.00;;;;;12.78;80.36;99334.09;5102842;27;45449;-57
2022/09/28 05:10:41;;;;;;;;;7.00;4.00;;;;;12.76;80.50;99333.38;5094308;27;46174;-56
2022/09/28 05:13:08;;;;;;;;;3.00;3.00;;;;;12.75;80.63;99320.13;5078615;27;45323;-56
2022/09/28 05:15:34;;;;;;;;;3.00;3.00;;;;;12.75;79.98;99318.31;5077592;28;45202;-54
2022/09/28 05:17:59;;;;;;;;;5.00;3.00;;;;;12.74;79.64;99313.97;5094461;27;45515;-57
2022/09/28 05:20:25;;;;;;;;;4.00;2.00;;;;;12.69;79.33;99316.19;5078586;27;45854;-57
2022/09/28 05:22:50;;;;;;;;;2.00;1.00;;;;;12.59;79.17;99307.25;5078634;27;45407;-54
2022/09/28 05:25:15;;;;;;;;;4.00;2.33;;;;;12.69;79.15;99322.38;5090242;27;45422;-57
2022/09/28 05:27:41;;;;;;;;;3.00;3.00;;;;;12.72;78.88;99320.41;5083483;27;45584;-58
2022/09/28 05:30:07;;;;;;;;;3.00;3.00;;;;;12.75;78.56;99333.47;5078108;27;46488;-57
2022/09/28 05:32:32;;;;;;;;;4.67;3.00;;;;;12.74;78.75;99324.63;5087176;27;45451;-57
2022/09/28 05:35:00;;;;;;;;;5.67;2.00;;;;;12.76;78.29;99333.38;5098196;27;45319;-56
2022/09/28 05:37:25;;;;;;;;;4.00;3.00;;;;;12.73;78.72;99322.09;5099005;27;45257;-57
2022/09/28 05:39:50;;;;;;;;;4.00;2.00;;;;;12.81;78.83;99325.81;5074707;27;45247;-58
2022/09/28 05:42:16;;;;;;;;;4.00;3.67;;;;;12.75;78.46;99314.81;5058491;28;45291;-54
2022/09/28 05:44:41;;;;;;;;;3.33;3.00;;;;;12.81;78.35;99327.63;5085440;27;45269;-56
2022/09/28 05:47:07;;;;;;;;;3.00;3.00;;;;;12.82;78.31;99326.66;5078935;27;45244;-56
2022/09/28 05:49:32;;;;;;;;;3.00;3.00;;;;;12.80;77.92;99326.78;5092044;27;52084;-57
2022/09/28 05:51:58;;;;;;;;;2.00;1.00;;;;;12.82;77.91;99337.31;5099115;27;45407;-56
2022/09/28 05:54:23;;;;;;;;;3.33;3.00;;;;;12.78;77.89;99331.41;5102513;27;45296;-54
2022/09/28 05:56:48;;;;;;;;;6.33;3.00;;;;;12.79;77.97;99341.09;5089529;27;45369;-57
2022/09/28 05:59:15;;;;;;;;;6.33;3.33;;;;;12.80;78.03;99331.28;5079991;27;45695;-60
2022/09/28 06:01:40;;;;;;;;;4.00;3.67;;;;;12.76;77.98;99324.50;5112338;27;45602;-55
2022/09/28 06:04:07;;;;;;;;;1.67;1.67;;;;;12.84;78.09;99340.69;5098356;27;45477;-56
2022/09/28 06:06:34;;;;;;;;;4.67;2.00;;;;;12.91;78.40;99350.75;5098076;27;45445;-55
2022/09/28 06:08:59;;;;;;;;;3.00;1.00;;;;;12.92;77.29;99349.75;5094827;27;47101;-52
2022/09/28 06:11:25;;;;;;;;;2.67;2.00;;;;;12.95;77.00;99351.31;5103743;27;45345;-55
2022/09/28 06:13:54;;;;;;;;;4.33;3.00;;;;;12.97;77.46;99350.19;5077776;27;45592;-59
2022/09/28 06:16:20;;;;;;;;;7.33;3.00;;;;;12.99;76.99;99348.25;5075373;27;45572;-52
2022/09/28 06:18:45;;;;;;;;;8.33;4.00;;;;;13.00;76.93;99349.94;5080217;27;46220;-50
2022/09/28 06:21:14;;;;;;;;;7.00;3.00;;;;;13.03;77.09;99348.84;5079613;27;45733;-56
2022/09/28 06:23:39;;;;;;;;;3.00;3.00;;;;;13.02;76.75;99354.28;5076797;27;45418;-51
2022/09/28 06:26:05;;;;;;;;;3.00;3.00;;;;;12.97;77.15;99352.88;5078397;27;45513;-57
2022/09/28 06:28:30;;;;;;;;;3.67;3.00;;;;;12.99;77.82;99353.56;5076879;27;47644;-53
2022/09/28 06:30:59;;;;;;;;;7.00;4.67;;;;;13.00;77.02;99355.25;5071887;27;45415;-52
2022/09/28 06:33:25;;;;;;;;;3.00;3.00;;;;;13.03;76.81;99353.34;5071241;27;45394;-55
2022/09/28 06:35:51;;;;;;;;;4.00;4.00;;;;;13.11;76.72;99364.19;5064018;28;45510;-55
2022/09/28 06:38:17;;;;;;;;;8.67;8.67;;;;;13.10;76.78;99362.50;5068724;28;46795;-56
2022/09/28 06:40:43;;;;;;;;;7.00;5.33;;;;;13.14;77.06;99369.25;5078692;28;45334;-56
2022/09/28 06:43:11;;;;;;;;;6.33;4.00;;;;;13.13;76.35;99367.56;5078415;27;45431;-59
2022/09/28 06:45:38;;;;;;;;;3.67;3.67;;;;;13.17;76.67;99367.19;5095380;27;45497;-52
2022/09/28 06:48:04;;;;;;;;;3.00;3.00;;;;;13.17;76.18;99371.69;5090234;27;46980;-52
2022/09/28 06:50:33;;;;;;;;;5.00;3.00;;;;;13.19;75.46;99383.09;5086141;27;45494;-53
2022/09/28 06:53:00;;;;;;;;;5.00;1.00;;;;;13.20;74.90;99384.78;5077889;28;45382;-52
2022/09/28 06:55:26;;;;;;;;;4.67;4.67;;;;;13.17;75.50;99385.03;5089802;27;45370;-56
2022/09/28 06:58:03;;;;;;;;;6.00;3.00;;;;;13.16;74.79;99378.84;5076373;27;46800;-52
2022/09/28 07:00:32;;;;;;;;;4.67;2.00;;;;;13.20;74.77;99388.31;5073400;28;45377;-56
2022/09/28 07:02:59;;;;;;;;;2.33;2.33;;;;;13.26;74.54;99389.59;5076886;27;45258;-56
2022/09/28 07:05:28;;;;;;;;;3.00;3.00;;;;;13.26;74.17;99384.25;5074231;28;45555;-55
2022/09/28 07:07:55;;;;;;;;;5.00;4.00;;;;;13.32;74.69;99405.09;5073384;27;46155;-53
2022/09/28 07:10:26;;;;;;;;;2.00;2.00;;;;;13.37;74.08;99402.84;5081892;27;45511;-53
2022/09/28 07:12:52;;;;;;;;;4.00;2.67;;;;;13.39;73.71;99402.72;5076559;27;45496;-54
2022/09/28 07:15:19;;;;;;;;;3.00;3.00;;;;;13.35;74.17;99393.28;5094231;27;45590;-55
2022/09/28 07:17:44;;;;;;;;;7.00;4.67;;;;;13.44;74.21;99404.03;5078280;27;46342;-56
2022/09/28 07:20:10;;;;;;;;;3.00;3.00;;;;;13.35;73.50;99383.47;5080158;27;45461;-51
2022/09/28 07:22:35;;;;;;;;;8.33;3.00;;;;;13.38;72.96;99393.03;5068676;27;45929;-53
2022/09/28 07:25:00;;;;;;;;;2.00;2.00;;;;;13.45;73.22;99402.22;5073621;27;45485;-60
2022/09/28 07:27:26;;;;;;;;;3.67;2.00;;;;;13.55;73.42;99411.97;5075821;27;45536;-59
2022/09/28 07:29:53;;;;;;;;;7.33;3.00;;;;;13.55;73.25;99405.78;5079585;27;45470;-60
2022/09/28 07:32:21;;;;;;;;;3.00;2.33;;;;;13.52;72.48;99404.19;5066993;27;45401;-56
2022/09/28 07:34:47;;;;;;;;;3.00;1.67;;;;;13.64;72.48;99410.28;5073335;28;45737;-54
2022/09/28 07:37:14;;;;;;;;;4.00;2.00;;;;;13.73;71.74;99408.66;5074349;28;46811;-56
2022/09/28 07:42:28;;;;;;;;;3.00;2.67;;;;;13.81;72.08;99419.53;5072260;28;45286;-55
2022/09/28 07:44:53;;;;;;;;;2.00;2.00;;;;;13.83;70.89;99425.56;5085454;27;45593;-54
2022/09/28 07:47:25;;;;;;;;;4.00;3.00;;;;;13.83;71.51;99420.22;5071627;28;45895;-53
2022/09/28 07:49:53;;;;;;;;;6.33;3.00;;;;;13.83;71.40;99428.25;5076662;27;45747;-54
2022/09/28 07:52:23;;;;;;;;;2.33;2.33;;;;;13.84;70.28;99435.28;5078674;27;46764;-56
2022/09/28 07:54:51;;;;;;;;;2.00;2.00;;;;;13.67;69.67;99422.53;5063765;28;45589;-54
2022/09/28 07:57:18;;;;;;;;;2.00;2.00;;;;;13.68;70.52;99422.44;5071166;27;46128;-58
2022/09/28 07:59:44;;;;;;;;;2.00;2.00;;;;;13.81;70.47;99444.41;5074988;27;45468;-59
2022/09/28 08:02:10;;;;;;;;;3.67;2.00;;;;;13.87;70.32;99437.69;5075813;27;45385;-55
2022/09/28 08:04:36;;;;;;;;;5.33;3.00;;;;;13.96;70.98;99436.03;5089155;27;45702;-55
2022/09/28 08:07:01;;;;;;;;;3.00;3.00;;;;;13.99;69.48;99441.94;5074665;28;47332;-54
2022/09/28 08:09:28;;;;;;;;;3.00;3.00;;;;;13.95;68.87;99443.22;5075167;27;45503;-55
2022/09/28 08:11:53;;;;;;;;;11.00;9.67;;;;;13.98;69.42;99440.25;5062645;27;45409;-55
2022/09/28 08:14:23;;;;;;;;;2.67;2.00;;;;;13.99;68.69;99444.63;5074828;27;45508;-57
2022/09/28 08:16:49;;;;;;;;;1.67;1.67;;;;;13.94;69.24;99449.53;5074480;27;45984;-55
2022/09/28 08:19:14;;;;;;;;;3.00;2.00;;;;;13.87;67.26;99443.03;5057084;27;45524;-54
2022/09/28 08:21:45;;;;;;;;;4.33;2.00;;;;;13.90;68.40;99448.09;5060499;28;45437;-57
2022/09/28 08:24:15;;;;;;;;;2.00;2.00;;;;;13.90;68.94;99448.09;5068462;27;45279;-53
2022/09/28 08:26:42;;;;;;;;;2.00;2.00;;;;;13.94;68.38;99454.03;5062665;27;46123;-57
2022/09/28 08:29:07;;;;;;;;;3.00;3.00;;;;;13.95;68.23;99456.56;5062969;28;45308;-56
2022/09/28 08:31:33;;;;;;;;;3.00;3.00;;;;;13.88;67.82;99453.56;5068049;27;45829;-56
2022/09/28 08:33:58;;;;;;;;;1.00;1.00;;;;;13.92;68.11;99456.81;5079990;27;45227;-58
2022/09/28 08:36:24;;;;;;;;;3.33;1.67;;;;;13.99;67.12;99455.31;5079262;27;45399;-56
2022/09/28 08:38:50;;;;;;;;;2.00;2.00;;;;;14.06;66.67;99455.59;5078765;28;45334;-57
2022/09/28 08:41:34;;;;;;;;;1.00;1.00;;;;;14.11;66.62;99448.03;5079761;27;45466;-53
2022/09/28 08:44:15;;;;;;;;;3.33;2.00;;;;;14.18;65.75;99455.34;5079347;27;45326;-61
2022/09/28 08:46:48;;;;;;;;;1.00;1.00;;;;;14.28;65.30;99451.88;5076533;27;46078;-53
2022/09/28 08:49:25;;;;;;;;;2.00;2.00;;;;;14.54;65.33;99458.44;5079725;27;46495;-58
2022/09/28 08:52:01;;;;;;;;;6.67;3.00;;;;;14.79;64.25;99450.84;5067169;28;45377;-53
2022/09/28 08:54:37;;;;;;;;;2.00;2.00;;;;;15.00;62.88;99459.59;5080287;27;45330;-54
2022/09/28 08:57:11;;;;;;;;;2.67;1.00;;;;;15.08;61.89;99456.19;5077466;28;45392;-52
2022/09/28 08:59:43;;;;;;;;;2.67;2.00;;;;;15.10;59.51;99464.91;5093458;27;45471;-57
2022/09/28 09:02:17;;;;;;;;;3.00;2.00;;;;;15.26;61.62;99454.50;5085568;27;45637;-52
2022/09/28 09:04:42;;;;;;;;;4.67;1.67;;;;;15.54;61.50;99458.09;5061516;28;45298;-53
2022/09/28 09:07:26;;;;;;;;;2.67;2.00;;;;;15.71;58.42;99456.53;5094627;27;46795;-55
2022/09/28 09:10:03;;;;;;;;;3.00;1.00;;;;;15.72;58.29;99456.38;5101526;27;45365;-57
2022/09/28 09:12:42;;;;;;;;;3.00;1.00;;;;;15.69;59.93;99461.19;5076964;28;45483;-54
2022/09/28 09:15:24;;;;;;;;;1.00;1.00;;;;;15.66;58.57;99451.59;5073768;28;45527;-54
2022/09/28 09:18:27;;;;;;;;;2.00;2.00;;;;;15.62;59.19;99450.19;5079379;27;45435;-54
2022/09/28 09:20:55;;;;;;;;;4.00;2.00;;;;;15.63;59.79;99460.78;5104702;27;45783;-55
2022/09/28 09:23:37;;;;;;;;;4.00;3.00;;;;;15.60;60.32;99460.22;5075504;28;45472;-52
2022/09/28 09:26:17;;;;;;;;;3.00;3.00;;;;;15.57;61.12;99441.72;5086506;27;45591;-52
2022/09/28 09:28:52;;;;;;;;;4.67;3.00;;;;;15.64;59.24;99453.59;5079543;27;46886;-54
2022/09/28 09:31:21;;;;;;;;;6.00;4.00;;;;;15.76;59.27;99463.16;5077703;27;45358;-52
2022/09/28 09:34:09;;;;;;;;;5.00;4.00;;;;;15.83;59.40;99458.88;5081151;27;45588;-54
2022/09/28 09:37:04;;;;;;;;;3.67;3.00;;;;;15.81;57.35;99458.19;5046907;27;45209;-56
2022/09/28 09:40:09;;;;;;;;;4.00;2.00;;;;;15.79;58.30;99456.66;5060340;27;45729;-62
2022/09/28 09:43:03;;;;;;;;;2.00;2.00;;;;;15.86;58.49;99458.56;5077586;28;45661;-58
2022/09/28 09:45:37;;;;;;;;;3.00;2.00;;;;;15.83;58.37;99448.16;5078013;27;45476;-57
2022/09/28 09:48:12;;;;;;;;;4.00;2.33;;;;;15.87;58.05;99460.25;5084208;27;45518;-59
2022/09/28 09:50:49;;;;;;;;;2.00;2.00;;;;;15.86;57.55;99437.13;5092695;27;45508;-57
2022/09/28 09:53:39;;;;;;;;;2.00;1.00;;;;;15.83;58.08;99456.19;5078301;27;45399;-57
2022/09/28 09:56:09;;;;;;;;;1.00;1.00;;;;;15.85;55.98;99453.34;5069774;28;45502;-60
2022/09/28 09:58:40;;;;;;;;;1.00;1.00;;;;;15.72;57.98;99439.44;5104982;27;45678;-55
2022/09/28 10:01:11;;;;;;;;;3.00;1.33;;;;;15.76;58.21;99452.44;5063097;27;46294;-58
2022/09/28 10:03:41;;;;;;;;;2.00;2.00;;;;;15.81;57.32;99454.66;5070913;28;45380;-61
2022/09/28 10:06:15;;;;;;;;;4.00;2.00;;;;;15.85;57.77;99451.53;5074993;27;45708;-61
2022/09/28 10:08:47;;;;;;;;;2.00;2.00;;;;;15.90;58.04;99438.53;5093747;27;45546;-61
2022/09/28 10:11:24;;;;;;;;;3.33;3.00;;;;;15.91;56.66;99442.06;5088033;27;46460;-58
2022/09/28 10:13:50;;;;;;;;;2.00;1.00;;;;;15.78;54.31;99449.59;5083359;27;45502;-59
2022/09/28 10:16:17;;;;;;;;;3.00;3.00;;;;;15.67;54.99;99453.28;5079134;27;45452;-59
2022/09/28 10:18:43;;;;;;;;;5.33;3.00;;;;;15.67;54.70;99453.28;5084634;27;45463;-61
2022/09/28 10:21:13;;;;;;;;;2.67;2.67;;;;;15.60;54.56;99430.72;5078182;27;46317;-59
2022/09/28 10:23:40;;;;;;;;;4.67;2.00;;;;;15.84;55.63;99455.19;5094391;27;45578;-58
2022/09/28 10:26:12;;;;;;;;;2.00;2.00;;;;;15.92;55.75;99449.13;5083373;27;45530;-58
2022/09/28 10:28:53;;;;;;;;;3.00;2.00;;;;;16.11;53.65;99446.31;5084374;27;45485;-60
2022/09/28 10:31:46;;;;;;;;;3.33;3.33;;;;;16.17;54.20;99453.78;5081202;27;45520;-60
2022/09/28 10:34:13;;;;;;;;;2.00;2.00;;;;;16.24;55.46;99451.34;5096425;27;45520;-64
2022/09/28 10:36:54;;;;;;;;;1.00;1.00;;;;;16.27;54.85;99448.34;5080770;27;45353;-53
2022/09/28 10:39:37;;;;;;;;;2.00;2.00;;;;;16.48;55.68;99442.72;5079412;27;45356;-58
2022/09/28 10:42:08;;;;;;;;;2.00;2.00;;;;;16.55;53.95;99429.56;5077167;27;45524;-57
2022/09/28 10:45:03;;;;;;;;;1.00;1.00;;;;;16.78;53.15;99437.00;5078975;27;45507;-60
2022/09/28 10:47:34;;;;;;;;;2.33;2.33;;;;;16.48;49.82;99443.56;5071547;27;45496;-57
2022/09/28 10:50:00;;;;;;;;;4.00;4.00;;;;;16.30;51.69;99448.06;5083778;27;45697;-53
2022/09/28 10:52:40;;;;;;;;;3.00;2.00;;;;;16.27;52.97;99445.66;5080817;27;45913;-51
2022/09/28 10:55:18;;;;;;;;;4.00;2.33;;;;;16.12;51.14;99445.31;5088954;27;45347;-57
2022/09/28 10:57:43;;;;;;;;;2.67;2.33;;;;;16.03;53.32;99440.03;5100024;27;45254;-54
2022/09/28 11:00:48;;;;;;;;;2.00;2.00;;;;;16.21;54.23;99430.19;5096441;27;45572;-54
2022/09/28 11:03:18;;;;;;;;;2.67;2.67;;;;;16.40;53.67;99430.06;5057260;27;46242;-59
2022/09/28 11:05:54;;;;;;;;;3.33;2.00;;;;;16.61;52.36;99434.31;5063096;27;45585;-55
2022/09/28 11:08:28;;;;;;;;;4.00;4.00;;;;;16.73;51.00;99441.16;5087908;27;45416;-54
2022/09/28 11:11:06;;;;;;;;;2.00;2.00;;;;;16.78;52.27;99446.91;5063035;27;45532;-58
2022/09/28 11:13:42;;;;;;;;;2.00;2.00;;;;;16.85;52.62;99439.94;5088049;27;45291;-59
2022/09/28 11:16:19;;;;;;;;;2.00;2.00;;;;;16.94;53.04;99443.56;5095814;27;45561;-55
2022/09/28 11:18:45;;;;;;;;;2.00;2.00;;;;;17.00;52.77;99441.06;5091412;27;45294;-59
2022/09/28 11:21:20;;;;;;;;;2.00;2.00;;;;;17.04;52.75;99445.13;5090835;27;45674;-57
2022/09/28 11:23:56;;;;;;;;;1.00;1.00;;;;;17.06;52.88;99443.16;5085038;27;45479;-56
2022/09/28 11:26:22;;;;;;;;;6.00;4.00;;;;;17.07;52.15;99438.63;5080369;27;45922;-58
2022/09/28 11:28:52;;;;;;;;;1.00;1.00;;;;;17.08;51.53;99446.53;5076641;28;45524;-53
2022/09/28 11:31:26;;;;;;;;;2.67;1.00;;;;;17.06;50.43;99445.84;5092198;27;45473;-55
2022/09/28 11:34:11;;;;;;;;;1.33;1.33;;;;;16.93;51.54;99440.03;5091681;27;45426;-56
2022/09/28 11:36:44;;;;;;;;;1.67;1.67;;;;;16.93;51.56;99442.72;5056536;28;45220;-53
2022/09/28 11:39:26;;;;;;;;;2.00;2.00;;;;;17.01;51.82;99434.72;5072331;27;45450;-58
2022/09/28 11:41:51;;;;;;;;;4.00;2.00;;;;;17.09;51.45;99442.84;5070415;27;45520;-60
2022/09/28 11:44:43;;;;;;;;;2.33;2.00;;;;;17.15;52.36;99435.16;5076931;27;46256;-60
2022/09/28 11:47:49;;;;;;;;;7.33;5.00;;;;;17.27;52.32;99436.59;5081905;27;45436;-66
2022/09/28 11:51:03;;;;;;;;;2.00;2.00;;;;;17.24;51.75;99427.00;5056497;27;45338;-61
2022/09/28 11:53:37;;;;;;;;;1.00;1.00;;;;;17.19;51.53;99426.63;5092477;27;45465;-57
2022/09/28 11:56:31;;;;;;;;;1.00;1.00;;;;;17.09;51.66;99442.84;5097434;27;45378;-57
2022/09/28 11:59:04;;;;;;;;;2.00;2.00;;;;;17.05;50.64;99430.69;5092559;27;45419;-58